Time;durP1;ratioP1;P1;durP2;ratioP2;P2;SDS_P1;SDS_P2;PMS_P1;PMS_P2;Temp;Humidity;BMP_temperature;BMP_pressure;BME280_temperature;BME280_humidity;BME280_pressure;Samples;Min_cycle;Max_cycle;Signal;HPM_P1;HPM_P2
2022/02/02 00:00:54;;;;;;;1.4;0.8;;;;;;;;;;;;;
2022/02/02 00:03:25;;;;;;;0.6;0.6;;;;;;;;;;;;;
2022/02/02 00:06:08;;;;;;;1.1;0.7;;;;;;;;;;;;;
2022/02/02 00:08:33;;;;;;;1.2;0.6;;;;;;;;;;;;;
2022/02/02 00:11:44;;;;;;;2.4;1.9;;;;;;;;;;;;;
2022/02/02 00:13:41;;;;;;;0.5;0.4;;;;;;;;;;;;;
2022/02/02 00:16:02;;;;;;;0.7;0.6;;;;;;;;;;;;;
2022/02/02 00:18:46;;;;;;;1.5;0.6;;;;;;;;;;;;;
2022/02/02 00:21:03;;;;;;;1.1;0.9;;;;;;;;;;;;;
2022/02/02 00:23:37;;;;;;;0.7;0.7;;;;;;;;;;;;;
2022/02/02 00:26:10;;;;;;;0.5;0.5;;;;;;;;;;;;;
2022/02/02 00:28:42;;;;;;;1.1;0.5;;;;;;;;;;;;;
2022/02/02 00:31:08;;;;;;;0.6;0.5;;;;;;;;;;;;;
2022/02/02 00:33:38;;;;;;;0.8;0.6;;;;;;;;;;;;;
2022/02/02 00:36:03;;;;;;;0.7;0.6;;;;;;;;;;;;;
2022/02/02 00:38:30;;;;;;;0.8;0.6;;;;;;;;;;;;;
2022/02/02 00:40:58;;;;;;;0.5;0.4;;;;;;;;;;;;;
2022/02/02 00:43:23;;;;;;;0.6;0.3;;;;;;;;;;;;;
2022/02/02 00:45:49;;;;;;;0.4;0.4;;;;;;;;;;;;;
2022/02/02 00:48:25;;;;;;;0.4;0.4;;;;;;;;;;;;;
2022/02/02 00:50:47;;;;;;;0.7;0.4;;;;;;;;;;;;;
2022/02/02 00:53:14;;;;;;;0.4;0.3;;;;;;;;;;;;;
2022/02/02 00:55:39;;;;;;;1.1;0.5;;;;;;;;;;;;;
2022/02/02 00:58:06;;;;;;;1.2;0.5;;;;;;;;;;;;;
2022/02/02 01:00:29;;;;;;;0.4;0.4;;;;;;;;;;;;;
2022/02/02 01:02:56;;;;;;;1.6;0.5;;;;;;;;;;;;;
2022/02/02 01:05:22;;;;;;;2.2;0.5;;;;;;;;;;;;;
2022/02/02 01:08:13;;;;;;;0.8;0.7;;;;;;;;;;;;;
2022/02/02 01:10:21;;;;;;;1.9;0.7;;;;;;;;;;;;;
2022/02/02 01:12:51;;;;;;;0.5;0.5;;;;;;;;;;;;;
2022/02/02 01:18:11;;;;;;;1;0.7;;;;;;;;;;;;;
2022/02/02 01:20:06;;;;;;;0.6;0.4;;;;;;;;;;;;;
2022/02/02 01:27:47;;;;;;;0.5;0.5;;;;;;;;;;;;;
2022/02/02 01:29:42;;;;;;;0.5;0.5;;;;;;;;;;;;;
2022/02/02 01:32:09;;;;;;;0.4;0.4;;;;;;;;;;;;;
2022/02/02 01:34:34;;;;;;;0.7;0.6;;;;;;;;;;;;;
2022/02/02 01:36:59;;;;;;;0.8;0.3;;;;;;;;;;;;;
2022/02/02 01:39:27;;;;;;;0.7;0.3;;;;;;;;;;;;;
2022/02/02 01:41:50;;;;;;;0.4;0.3;;;;;;;;;;;;;
2022/02/02 01:44:23;;;;;;;0.4;0.4;;;;;;;;;;;;;
2022/02/02 01:46:41;;;;;;;0.4;0.4;;;;;;;;;;;;;
2022/02/02 01:50:04;;;;;;;0.2;0.2;;;;;;;;;;;;;
2022/02/02 01:51:50;;;;;;;0.2;0.2;;;;;;;;;;;;;
2022/02/02 01:54:02;;;;;;;0.2;0.2;;;;;;;;;;;;;
2022/02/02 01:56:22;;;;;;;0.7;0.2;;;;;;;;;;;;;
2022/02/02 01:59:00;;;;;;;0.1;0.1;;;;;;;;;;;;;
2022/02/02 02:01:15;;;;;;;0.2;0.2;;;;;;;;;;;;;
2022/02/02 02:03:40;;;;;;;0.2;0.2;;;;;;;;;;;;;
2022/02/02 02:06:08;;;;;;;0.5;0.4;;;;;;;;;;;;;
2022/02/02 02:08:35;;;;;;;0.4;0.4;;;;;;;;;;;;;
2022/02/02 02:11:02;;;;;;;0.3;0.3;;;;;;;;;;;;;
2022/02/02 02:13:45;;;;;;;0.3;0.3;;;;;;;;;;;;;
2022/02/02 02:15:51;;;;;;;0.8;0.3;;;;;;;;;;;;;
2022/02/02 02:18:18;;;;;;;0.3;0.3;;;;;;;;;;;;;
2022/02/02 02:20:42;;;;;;;0.2;0.2;;;;;;;;;;;;;
2022/02/02 02:23:07;;;;;;;0.7;0.3;;;;;;;;;;;;;
2022/02/02 02:25:33;;;;;;;1.4;0.3;;;;;;;;;;;;;
2022/02/02 02:28:08;;;;;;;0.7;0.3;;;;;;;;;;;;;
2022/02/02 02:30:34;;;;;;;0.1;0.1;;;;;;;;;;;;;
2022/02/02 02:35:34;;;;;;;0.3;0.2;;;;;;;;;;;;;
2022/02/02 02:38:01;;;;;;;0.3;0.3;;;;;;;;;;;;;
2022/02/02 02:40:21;;;;;;;0.3;0.3;;;;;;;;;;;;;
2022/02/02 02:57:10;;;;;;;0.5;0.3;;;;;;;;;;;;;
2022/02/02 02:59:40;;;;;;;0.7;0.5;;;;;;;;;;;;;
2022/02/02 03:02:31;;;;;;;0.3;0.3;;;;;;;;;;;;;
2022/02/02 03:14:51;;;;;;;1;0.3;;;;;;;;;;;;;
2022/02/02 03:29:52;;;;;;;0.9;0.5;;;;;;;;;;;;;
2022/02/02 03:31:19;;;;;;;0.8;0.4;;;;;;;;;;;;;
2022/02/02 03:51:10;;;;;;;1;0.4;;;;;;;;;;;;;
2022/02/02 03:54:16;;;;;;;1.8;0.6;;;;;;;;;;;;;
2022/02/02 03:55:29;;;;;;;1.5;0.9;;;;;;;;;;;;;
2022/02/02 03:57:56;;;;;;;0.7;0.6;;;;;;;;;;;;;
2022/02/02 04:02:48;;;;;;;1.3;0.5;;;;;;;3.5;96.85254;934.0262;;;;
2022/02/02 04:05:22;;;;;;;1.4;0.4;;;;;;;3.62;96.83594;934.2017;;;;
2022/02/02 04:07:31;;;;;;;1.8;0.6;;;;;;;3.9;96.14648;934.18;;;;
2022/02/02 04:09:50;;;;;;;0.9;0.4;;;;;;;4.05;95.38965;934.0644;;;;
2022/02/02 04:12:37;;;;;;;1.1;0.5;;;;;;;4.04;95.20996;933.8067;;;;
2022/02/02 04:37:23;;;;;;;1.9;1.3;;;;;;;3.9;94.62695;934.0144;;;;
2022/02/02 04:51:23;;;;;;;8.6;7.1;;;;;;;4.17;94.03418;934.0425;;;;
2022/02/02 04:51:52;;;;;;;0.5;0.5;;;;;;;3.83;94.32031;934.0678;;;;
2022/02/02 04:54:18;;;;;;;0.5;0.5;;;;;;;4.07;93.75391;933.9658;;;;
2022/02/02 04:56:52;;;;;;;15;13.5;;;;;;;4.09;94.23242;934.1814;;;;
2022/02/02 04:59:07;;;;;;;1;1;;;;;;;3.85;96.08887;934.1942;;;;
2022/02/02 05:02:17;;;;;;;1.2;0.8;;;;;;;3.89;95.06348;934.3912;;;;
2022/02/02 05:04:15;;;;;;;0.6;0.6;;;;;;;3.86;94.82129;934.4199;;;;
2022/02/02 05:06:26;;;;;;;0.6;0.6;;;;;;;4.01;94.91113;934.187;;;;
2022/02/02 05:08:50;;;;;;;1.9;1.1;;;;;;;4.09;94.84863;934.1813;;;;
2022/02/02 05:11:54;;;;;;;0.9;0.9;;;;;;;3.92;95.65625;934.4136;;;;
2022/02/02 05:16:28;;;;;;;1.5;1;;;;;;;4.03;92.41895;934.1072;;;;
2022/02/02 05:19:18;;;;;;;1.8;1.4;;;;;;;4.23;91.49219;934.2719;;;;
2022/02/02 05:21:38;;;;;;;1.5;1.1;;;;;;;4.3;91.02637;934.6498;;;;
2022/02/02 05:27:23;;;;;;;1.4;1.1;;;;;;;4.35;87.3457;934.3209;;;;
2022/02/02 05:41:21;;;;;;;2.4;1.5;;;;;;;4.19;92.49707;934.562;;;;
2022/02/02 05:43:34;;;;;;;3.3;2.3;;;;;;;4.09;93.13965;934.4586;;;;
2022/02/02 05:50:35;;;;;;;3.3;1.5;;;;;;;4.51;87.50293;934.6415;;;;
2022/02/02 05:52:42;;;;;;;1.6;1.2;;;;;;;4.48;90.23145;934.5705;;;;
2022/02/02 05:55:07;;;;;;;2.5;0.9;;;;;;;4.59;89.56738;934.7167;;;;
2022/02/02 05:57:32;;;;;;;10.9;8.8;;;;;;;4.61;88.99707;934.8533;;;;
2022/02/02 05:59:57;;;;;;;9.3;6.7;;;;;;;4.59;89.15039;934.7728;;;;
2022/02/02 06:02:28;;;;;;;8.6;6.9;;;;;;;4.46;89.76465;934.7133;;;;
2022/02/02 06:04:55;;;;;;;3.2;1.3;;;;;;;4.24;91.56348;934.6308;;;;
2022/02/02 06:07:20;;;;;;;3.4;1.7;;;;;;;4.28;91.97852;934.7084;;;;
2022/02/02 06:09:49;;;;;;;4;3.3;;;;;;;4.2;92.94922;934.7697;;;;
2022/02/02 06:12:11;;;;;;;3.8;2.7;;;;;;;4.31;92.42285;934.8383;;;;
2022/02/02 06:14:41;;;;;;;5.2;4.7;;;;;;;4.42;91.72656;934.7031;;;;
2022/02/02 06:17:08;;;;;;;6.5;5.9;;;;;;;4.46;91.27441;934.76;;;;
2022/02/02 06:19:31;;;;;;;9.4;8.3;;;;;;;4.46;91.3418;934.8017;;;;
2022/02/02 06:22:01;;;;;;;5;2.8;;;;;;;4.34;91.70898;934.9567;;;;
2022/02/02 06:24:27;;;;;;;2.1;1.7;;;;;;;4.22;92.53711;935.1132;;;;
2022/02/02 06:26:54;;;;;;;1.6;0.8;;;;;;;4.37;92.1875;935.0938;;;;
2022/02/02 06:29:19;;;;;;;3.1;2.6;;;;;;;4.2;92.17285;935.4867;;;;
2022/02/02 06:31:51;;;;;;;1.5;1.1;;;;;;;4.29;92.65527;935.3383;;;;
2022/02/02 06:34:20;;;;;;;3.3;2.1;;;;;;;4.22;92.9082;935.2874;;;;
2022/02/02 06:36:47;;;;;;;4;2.3;;;;;;;4.17;92.93164;935.3521;;;;
2022/02/02 06:39:14;;;;;;;4;2.3;;;;;;;3.95;93.89844;935.3754;;;;
2022/02/02 06:41:39;;;;;;;3.2;1.3;;;;;;;3.71;94.08984;935.4695;;;;
2022/02/02 06:44:08;;;;;;;2.1;1.2;;;;;;;3.79;94.23145;935.6142;;;;
2022/02/02 06:46:37;;;;;;;2.1;1;;;;;;;3.76;93.6416;935.6128;;;;
2022/02/02 06:48:59;;;;;;;4.1;2.4;;;;;;;3.79;93.77051;935.9846;;;;
2022/02/02 06:51:32;;;;;;;1.6;1;;;;;;;3.76;93.88867;936.0206;;;;
2022/02/02 06:53:55;;;;;;;1.7;0.7;;;;;;;3.81;94.15723;936.0483;;;;
2022/02/02 06:56:30;;;;;;;1.4;0.9;;;;;;;3.81;93.4043;935.8608;;;;
2022/02/02 06:59:00;;;;;;;1.3;0.7;;;;;;;4;93.6709;935.7477;;;;
2022/02/02 07:01:17;;;;;;;7.4;3.1;;;;;;;4.04;93.35449;935.9713;;;;
2022/02/02 07:03:53;;;;;;;4.5;2.6;;;;;;;4.01;92.96582;935.8358;;;;
2022/02/02 07:06:13;;;;;;;6.7;2.8;;;;;;;4.08;93.12793;935.7922;;;;
2022/02/02 07:08:36;;;;;;;2.8;1.2;;;;;;;4.01;91.75098;935.6222;;;;
2022/02/02 07:11:43;;;;;;;3.9;1.7;;;;;;;4.13;91.23828;935.9111;;;;
2022/02/02 07:13:30;;;;;;;3.7;2.6;;;;;;;4.21;91.37598;935.7417;;;;
2022/02/02 07:16:07;;;;;;;3.5;1.6;;;;;;;4.25;90.48535;935.5884;;;;
2022/02/02 07:18:35;;;;;;;2.8;1.9;;;;;;;4.28;90.62598;935.903;;;;
2022/02/02 07:21:06;;;;;;;3.8;1.3;;;;;;;4.3;90.24805;935.842;;;;
2022/02/02 07:23:43;;;;;;;3.3;1.5;;;;;;;4.28;87.93848;935.6652;;;;
2022/02/02 07:28:27;;;;;;;3.3;1.6;;;;;;;4.63;86.77051;935.7361;;;;
2022/02/02 07:30:56;;;;;;;5.1;1.5;;;;;;;4.73;86.72363;935.7617;;;;
2022/02/02 07:33:19;;;;;;;6.2;2.5;;;;;;;4.3;89.94531;935.9021;;;;
2022/02/02 07:35:53;;;;;;;5.7;2.4;;;;;;;4.31;91.28711;936.1569;;;;
2022/02/02 07:38:07;;;;;;;8.9;4.3;;;;;;;4.34;90.22363;936.224;;;;
2022/02/02 07:40:33;;;;;;;6.8;3.1;;;;;;;4.34;90.78613;936.3256;;;;
2022/02/02 07:43:02;;;;;;;9.1;3.3;;;;;;;4.32;91.08594;936.2753;;;;
2022/02/02 07:45:34;;;;;;;10.1;4.4;;;;;;;4.08;92.06836;936.3577;;;;
2022/02/02 07:47:59;;;;;;;5.2;1.7;;;;;;;4.12;89.06348;936.1772;;;;
2022/02/02 07:50:24;;;;;;;2.9;1.4;;;;;;;4.32;87.59766;936.1454;;;;
2022/02/02 07:52:52;;;;;;;6.6;3.4;;;;;;;4.38;89.33301;936.1685;;;;
2022/02/02 07:55:17;;;;;;;4.9;2.1;;;;;;;4.55;89.08496;936.2578;;;;
2022/02/02 07:57:46;;;;;;;2.6;1.3;;;;;;;4.46;87.4248;936.2947;;;;
2022/02/02 08:00:17;;;;;;;4.7;1.8;;;;;;;4.38;89.40918;936.2243;;;;
2022/02/02 08:02:49;;;;;;;3.6;2.2;;;;;;;4.37;91.27734;936.4164;;;;
2022/02/02 08:05:02;;;;;;;4.1;2.3;;;;;;;4.46;90.09277;936.4603;;;;
2022/02/02 08:07:31;;;;;;;6;2.3;;;;;;;4.38;90.66113;936.4089;;;;
2022/02/02 08:10:04;;;;;;;2.6;1.3;;;;;;;4.21;91.52441;936.4858;;;;
2022/02/02 08:12:19;;;;;;;3.1;2.1;;;;;;;4.12;92.41602;936.3669;;;;
2022/02/02 08:14:42;;;;;;;13.6;7.5;;;;;;;3.96;94.21387;936.327;;;;
2022/02/02 08:17:07;;;;;;;2.7;1.5;;;;;;;3.85;94.75195;936.2015;;;;
2022/02/02 08:19:35;;;;;;;3.1;2.2;;;;;;;3.72;95.80273;936.2611;;;;
2022/02/02 08:21:59;;;;;;;2.8;1.5;;;;;;;3.69;96.0752;936.2183;;;;
2022/02/02 08:24:28;;;;;;;5.6;2.7;;;;;;;3.62;95.65625;936.2839;;;;
2022/02/02 08:27:00;;;;;;;2.3;1.4;;;;;;;3.64;95.46973;936.257;;;;
2022/02/02 08:29:28;;;;;;;4;1.8;;;;;;;3.93;94.63477;936.3719;;;;
2022/02/02 08:31:59;;;;;;;3.3;1.8;;;;;;;4.03;93.50781;936.3892;;;;
2022/02/02 08:34:35;;;;;;;3.1;2.1;;;;;;;4.1;92.62598;936.3569;;;;
2022/02/02 08:36:59;;;;;;;4.8;3;;;;;;;4.24;92.48633;936.4592;;;;
2022/02/02 08:39:45;;;;;;;1.7;0.9;;;;;;;4.07;91.46094;936.519;;;;
2022/02/02 08:41:57;;;;;;;1.2;0.8;;;;;;;3.85;91.88281;936.8394;;;;
2022/02/02 08:44:22;;;;;;;1.6;1.1;;;;;;;3.85;92.26758;936.8703;;;;
2022/02/02 08:46:48;;;;;;;1.6;0.9;;;;;;;3.64;92.60254;936.6758;;;;
2022/02/02 08:49:11;;;;;;;2.1;1.3;;;;;;;3.65;92.35938;936.7595;;;;
2022/02/02 08:51:38;;;;;;;2.4;1.4;;;;;;;3.67;92.35156;936.8018;;;;
2022/02/02 08:54:09;;;;;;;3.9;1.5;;;;;;;3.74;92.47754;936.9254;;;;
2022/02/02 08:57:06;;;;;;;5.1;1.9;;;;;;;3.85;92.87402;936.6757;;;;
2022/02/02 08:59:01;;;;;;;5.5;1.8;;;;;;;4;92.21973;937.0711;;;;
2022/02/02 09:01:25;;;;;;;5.4;3;;;;;;;3.86;92.71875;936.9626;;;;
2022/02/02 09:06:12;;;;;;;5.3;2.4;;;;;;;3.96;92.72949;936.9668;;;;
2022/02/02 09:08:40;;;;;;;4.1;1.6;;;;;;;3.91;92.98926;936.6358;;;;
2022/02/02 09:23:29;;;;;;;167.8;85.7;;;;;;;4.04;90.19434;937.4305;;;;
2022/02/02 09:25:54;;;;;;;5.8;2.7;;;;;;;4.13;88.03125;937.3837;;;;
2022/02/02 09:34:07;;;;;;;5.7;3.3;;;;;;;4.72;86.78027;937.361;;;;
2022/02/02 09:35:33;;;;;;;3.1;2.1;;;;;;;4.77;86.96777;937.3416;;;;
2022/02/02 09:38:01;;;;;;;4.7;2;;;;;;;4.83;87.49902;937.2838;;;;
2022/02/02 09:41:09;;;;;;;8.7;5.3;;;;;;;4.66;89.09863;937.2731;;;;
2022/02/02 09:42:56;;;;;;;141.3;90.2;;;;;;;4.7;89.28613;937.2347;;;;
2022/02/02 09:45:26;;;;;;;5.4;3.2;;;;;;;4.79;89.14746;937.2012;;;;
2022/02/02 09:47:57;;;;;;;38.8;28.9;;;;;;;4.79;88.89746;937.0645;;;;
2022/02/02 09:50:21;;;;;;;5;3.3;;;;;;;4.89;89.22656;937.124;;;;
2022/02/02 09:52:43;;;;;;;1.5;1;;;;;;;4.95;87.47754;937.1396;;;;
2022/02/02 09:55:09;;;;;;;10.8;6.9;;;;;;;4.88;87.97168;937.1868;;;;
2022/02/02 10:00:02;;;;;;;30.8;23.6;;;;;;;4.86;88.71191;937.363;;;;
2022/02/02 10:02:36;;;;;;;6.3;3.3;;;;;;;4.74;89.1582;937.3566;;;;
2022/02/02 10:04:47;;;;;;;17.7;11.9;;;;;;;4.38;90.46777;937.4263;;;;
2022/02/02 10:07:36;;;;;;;42.2;37.7;;;;;;;4.49;91.4248;937.5128;;;;
2022/02/02 10:09:55;;;;;;;12;10.3;;;;;;;4.33;92.36914;937.5287;;;;
2022/02/02 10:12:42;;;;;;;5.3;3.7;;;;;;;4.43;91.85254;937.7531;;;;
2022/02/02 10:15:39;;;;;;;62.2;41.1;;;;;;;4.62;90.93555;937.7283;;;;
2022/02/02 10:18:07;;;;;;;10.1;7.3;;;;;;;4.84;90.65723;937.7899;;;;
2022/02/02 10:20:32;;;;;;;7.4;4.3;;;;;;;4.77;89.50391;937.707;;;;
2022/02/02 10:23:03;;;;;;;4.6;3.4;;;;;;;4.76;90.48242;937.7319;;;;
2022/02/02 10:25:35;;;;;;;28.4;20;;;;;;;4.79;90.23828;937.8123;;;;
2022/02/02 10:28:06;;;;;;;5.8;3.9;;;;;;;4.78;88.69434;937.6702;;;;
2022/02/02 10:30:40;;;;;;;3.5;1.4;;;;;;;4.59;87.14844;937.6335;;;;
2022/02/02 10:33:08;;;;;;;1;0.9;;;;;;;4.8;86.24219;937.516;;;;
2022/02/02 10:35:35;;;;;;;7.7;4.7;;;;;;;4.79;88.48047;937.4984;;;;
2022/02/02 10:38:05;;;;;;;6.3;3.2;;;;;;;4.89;88.59375;937.5025;;;;
2022/02/02 10:40:28;;;;;;;3.2;2.5;;;;;;;4.91;89.01367;937.5134;;;;
2022/02/02 10:42:53;;;;;;;3.4;2.3;;;;;;;4.96;88.89941;937.517;;;;
2022/02/02 10:45:23;;;;;;;6.1;3;;;;;;;5.03;89.20996;937.4003;;;;
2022/02/02 10:47:52;;;;;;;4.6;2.6;;;;;;;5.15;87.23828;937.478;;;;
2022/02/02 10:50:19;;;;;;;4.9;2.9;;;;;;;5.35;86.94043;937.4278;;;;
2022/02/02 10:52:44;;;;;;;5.5;2.8;;;;;;;5.39;85.97754;937.3505;;;;
2022/02/02 10:55:18;;;;;;;5.8;1.7;;;;;;;5.49;85.0625;937.4099;;;;
2022/02/02 10:57:36;;;;;;;5.7;3.1;;;;;;;5.22;86.50879;937.5173;;;;
2022/02/02 11:00:08;;;;;;;6.3;3.1;;;;;;;5.44;86.34961;937.522;;;;
2022/02/02 11:07:11;;;;;;;3.8;2.2;;;;;;;5.3;85.10352;937.1841;;;;
2022/02/02 11:09:40;;;;;;;15;8.3;;;;;;;5.17;87.34375;937.3387;;;;
2022/02/02 11:12:07;;;;;;;18.4;11.9;;;;;;;5.1;88.81641;937.4417;;;;
2022/02/02 11:14:32;;;;;;;16.4;9.3;;;;;;;5.02;90.4248;937.4972;;;;
2022/02/02 11:16:57;;;;;;;11.1;6.2;;;;;;;5.23;89.9707;937.5159;;;;
2022/02/02 11:19:24;;;;;;;10.1;5.8;;;;;;;5.29;88.92578;937.3323;;;;
2022/02/02 11:21:54;;;;;;;30.9;18.9;;;;;;;5.26;88.625;937.5072;;;;
2022/02/02 11:24:24;;;;;;;6.6;4.3;;;;;;;4.93;90.14453;937.4998;;;;
2022/02/02 11:26:49;;;;;;;12.9;7.3;;;;;;;5.07;89.79004;937.5497;;;;
2022/02/02 11:29:18;;;;;;;13.1;9.5;;;;;;;4.96;90.28613;937.6339;;;;
2022/02/02 11:31:47;;;;;;;8.2;4.8;;;;;;;4.61;92.36426;937.5941;;;;
2022/02/02 11:34:13;;;;;;;20.7;11.1;;;;;;;4.71;91.66504;937.6113;;;;
2022/02/02 11:36:40;;;;;;;10.6;4.7;;;;;;;4.71;91.16895;937.7099;;;;
2022/02/02 11:39:05;;;;;;;9.4;5.5;;;;;;;4.61;92.60059;937.5948;;;;
2022/02/02 11:41:41;;;;;;;7.6;3.2;;;;;;;4.85;92.33789;937.7366;;;;
2022/02/02 11:43:58;;;;;;;4.2;1.8;;;;;;;4.88;89.21094;937.5992;;;;
2022/02/02 11:46:20;;;;;;;4.3;1.7;;;;;;;5.08;86.33301;937.7141;;;;
2022/02/02 11:48:54;;;;;;;3.2;1.5;;;;;;;5.06;85.07813;937.9182;;;;
2022/02/02 11:51:14;;;;;;;4.6;1.9;;;;;;;5.11;85.1543;938.1997;;;;
2022/02/02 11:53:39;;;;;;;3.4;1.7;;;;;;;4.96;81.41797;937.881;;;;
2022/02/02 11:56:09;;;;;;;6.4;1.8;;;;;;;5.12;78.77539;937.9836;;;;
2022/02/02 11:58:37;;;;;;;4.4;2.1;;;;;;;5.3;81.6416;938.1811;;;;
2022/02/02 12:01:12;;;;;;;5.3;1.8;;;;;;;5.35;77.62402;938.155;;;;
2022/02/02 12:03:37;;;;;;;3.3;1.7;;;;;;;5.23;80.0127;938.1362;;;;
2022/02/02 12:06:05;;;;;;;3.6;1.7;;;;;;;5.18;78.38281;938.1174;;;;
2022/02/02 12:08:30;;;;;;;15.3;7;;;;;;;5.29;81.42383;938;;;;
2022/02/02 12:11:01;;;;;;;9.3;3.2;;;;;;;5.33;78.39746;937.9302;;;;
2022/02/02 12:27:48;;;;;;;10.5;6.4;;;;;;;5.33;87.37695;937.8583;;;;
2022/02/02 12:47:48;;;;;;;9.8;5.4;;;;;;;5.28;86.375;937.6872;;;;
2022/02/02 12:50:16;;;;;;;10.6;5.3;;;;;;;5.12;87.28906;937.77;;;;
2022/02/02 12:55:51;;;;;;;8.5;4.8;;;;;;;4.97;88.21387;938.1675;;;;
2022/02/02 12:57:16;;;;;;;12.4;6.2;;;;;;;4.78;90.31738;938.1711;;;;
2022/02/02 13:00:05;;;;;;;9;3.2;;;;;;;4.66;90.81055;938.2004;;;;
2022/02/02 13:02:15;;;;;;;10.6;4;;;;;;;4.83;90.54297;938.2014;;;;
2022/02/02 13:04:40;;;;;;;10.6;3.9;;;;;;;4.62;90.71094;938.139;;;;
2022/02/02 13:07:10;;;;;;;8.5;4.8;;;;;;;4.72;90.21582;938.1929;;;;
2022/02/02 13:09:35;;;;;;;14;8.9;;;;;;;4.94;89.44824;938.1824;;;;
2022/02/02 13:12:05;;;;;;;12.9;6.2;;;;;;;4.77;90.59668;938.1519;;;;
2022/02/02 13:14:44;;;;;;;11.4;6.3;;;;;;;4.49;91.84375;938.1451;;;;
2022/02/02 13:17:01;;;;;;;8.3;4.1;;;;;;;4.5;93.06152;938.2039;;;;
2022/02/02 13:19:31;;;;;;;7.1;3.5;;;;;;;4.76;91.30469;938.1831;;;;
2022/02/02 13:21:56;;;;;;;7.6;4.4;;;;;;;4.79;90.52148;938.2422;;;;
2022/02/02 13:24:19;;;;;;;8.7;5.1;;;;;;;4.79;90.9834;938.3756;;;;
2022/02/02 13:26:45;;;;;;;9.8;5.5;;;;;;;4.5;91.05762;938.5485;;;;
2022/02/02 13:29:11;;;;;;;9.9;5.5;;;;;;;4.48;91.72852;938.5825;;;;
2022/02/02 13:31:53;;;;;;;5.4;2.3;;;;;;;4.34;92.50781;938.7036;;;;
2022/02/02 13:34:24;;;;;;;8;2.5;;;;;;;4.3;92.88281;938.6827;;;;
2022/02/02 13:36:52;;;;;;;5.3;2.5;;;;;;;4.48;92.41309;938.818;;;;
2022/02/02 13:39:25;;;;;;;5.2;2.6;;;;;;;4.63;90.75586;938.8713;;;;
2022/02/02 13:44:23;;;;;;;5.4;3.8;;;;;;;4.66;90.81934;938.7949;;;;
2022/02/02 13:46:46;;;;;;;8.4;4.1;;;;;;;4.6;91.46094;938.7559;;;;
2022/02/02 13:49:09;;;;;;;6.6;3.3;;;;;;;4.38;92.5293;939.0266;;;;
2022/02/02 13:56:30;;;;;;;7.7;3.7;;;;;;;4.38;93.33789;939.0642;;;;
2022/02/02 13:58:45;;;;;;;5.9;3.2;;;;;;;4.46;92.3418;939.0184;;;;
2022/02/02 14:01:13;;;;;;;6.2;3;;;;;;;4.41;90.74512;939.1365;;;;
2022/02/02 14:04:00;;;;;;;5;2.3;;;;;;;4.67;87.23047;939.2174;;;;
2022/02/02 14:06:18;;;;;;;6.5;2.7;;;;;;;4.78;87.94922;939.2176;;;;
2022/02/02 14:11:13;;;;;;;8.6;3.8;;;;;;;4.36;91.81445;939.3568;;;;
2022/02/02 14:32:58;;;;;;;8;3.4;;;;;;;4.78;79.11719;939.4551;;;;
2022/02/02 14:35:27;;;;;;;55.1;24.7;;;;;;;5.08;80.01953;939.4031;;;;
2022/02/02 14:37:53;;;;;;;23.6;11.3;;;;;;;5.2;81.79004;939.481;;;;
2022/02/02 14:40:29;;;;;;;17.8;8.6;;;;;;;5.33;84.00391;939.4301;;;;
2022/02/02 14:42:50;;;;;;;8.7;4.6;;;;;;;4.91;87.29004;939.5977;;;;
2022/02/02 14:45:21;;;;;;;9.1;5.2;;;;;;;4.71;88.25195;939.5237;;;;
2022/02/02 14:47:47;;;;;;;23.4;10.4;;;;;;;4.54;88.38477;939.4871;;;;
2022/02/02 14:50:14;;;;;;;14.7;6.6;;;;;;;4.63;88.65137;939.4155;;;;
2022/02/02 14:52:44;;;;;;;15.6;7.9;;;;;;;4.62;89.5166;939.4933;;;;
2022/02/02 14:55:51;;;;;;;18.2;8.5;;;;;;;4.68;84.34863;939.4055;;;;
2022/02/02 15:23:53;;;;;;;5.3;2.7;;;;;;;4.88;84.91797;940.0062;;;;
2022/02/02 15:23:59;;;;;;;4.7;2;;;;;;;4.62;86.14941;940.106;;;;
2022/02/02 15:28:41;;;;;;;3.3;1.6;;;;;;;4.78;84.78418;940.0924;;;;
2022/02/02 15:29:12;;;;;;;3.8;1.7;;;;;;;4.79;86.10547;940.1647;;;;
2022/02/02 15:31:37;;;;;;;4.6;2.2;;;;;;;4.61;88.01758;940.3248;;;;
2022/02/02 15:34:14;;;;;;;4.8;1.7;;;;;;;4.52;88.94434;940.4032;;;;
2022/02/02 15:37:20;;;;;;;5.5;1.5;;;;;;;4.45;90.07715;940.4705;;;;
2022/02/02 15:39:12;;;;;;;43.9;29.7;;;;;;;4.32;91.41211;940.5717;;;;
2022/02/02 15:42:03;;;;;;;9.9;6.8;;;;;;;4.33;91.73926;940.6106;;;;
2022/02/02 15:58:48;;;;;;;2.5;1.4;;;;;;;4.37;93.31445;940.856;;;;
2022/02/02 16:03:41;;;;;;;7.8;6;;;;;;;4.56;91.8457;940.7667;;;;
2022/02/02 16:06:16;;;;;;;3.8;1.9;;;;;;;4.57;91.39941;940.7255;;;;
2022/02/02 16:08:39;;;;;;;8.3;5.2;;;;;;;4.38;92.14453;940.7757;;;;
2022/02/02 16:11:16;;;;;;;16;8.9;;;;;;;4.41;92.59277;940.9066;;;;
2022/02/02 16:13:34;;;;;;;7.2;4.8;;;;;;;4.23;93.66797;940.8248;;;;
2022/02/02 16:16:01;;;;;;;8;5.3;;;;;;;4.38;93.2041;940.9683;;;;
2022/02/02 16:18:40;;;;;;;11.3;7.5;;;;;;;4.51;92.51172;940.765;;;;
2022/02/02 16:34:42;;;;;;;8.2;6.3;;;;;;;4.37;93.55176;940.6037;;;;
2022/02/02 16:36:04;;;;;;;9.4;6.5;;;;;;;4.1;94.05176;940.6028;;;;
2022/02/02 16:38:24;;;;;;;16.3;10;;;;;;;4.22;93.60547;940.7935;;;;
2022/02/02 16:40:49;;;;;;;8.7;5.8;;;;;;;4.16;93.95605;940.9501;;;;
2022/02/02 16:43:15;;;;;;;12.8;7.7;;;;;;;4.27;93.32715;940.8074;;;;
2022/02/02 16:45:38;;;;;;;26.6;17.6;;;;;;;4.08;94.36523;940.9275;;;;
2022/02/02 16:48:09;;;;;;;25.2;14.3;;;;;;;3.83;96.1748;941.091;;;;
2022/02/02 16:50:43;;;;;;;24.1;12.9;;;;;;;4.11;95.39453;941.127;;;;
2022/02/02 16:53:10;;;;;;;21.9;13.4;;;;;;;4.15;94.50293;941.1633;;;;
2022/02/02 16:55:39;;;;;;;28;17.1;;;;;;;4.07;94.85645;940.9814;;;;
2022/02/02 16:58:06;;;;;;;40;26.2;;;;;;;4.06;95.51758;941.2166;;;;
2022/02/02 17:28:35;;;;;;;18.9;11.8;;;;;;;4.31;93.90723;941.6063;;;;
2022/02/02 17:32:12;;;;;;;15.6;9.9;;;;;;;4.35;93.51367;941.7381;;;;
2022/02/02 17:34:35;;;;;;;8.4;5.9;;;;;;;4.28;93.45313;941.8268;;;;
2022/02/02 17:37:01;;;;;;;6.4;3.9;;;;;;;4.35;92.99219;941.8348;;;;
2022/02/02 17:39:21;;;;;;;5.6;2.6;;;;;;;4.36;92.50293;941.9489;;;;
2022/02/02 17:44:37;;;;;;;5.7;2.2;;;;;;;4.24;92.30664;942.1119;;;;
2022/02/02 17:57:05;;;;;;;3.4;2.2;;;;;;;4.52;90.9375;942.1058;;;;
2022/02/02 18:00:09;;;;;;;4.1;3.4;;;;;;;4.3;91.28516;942.1262;;;;
2022/02/02 18:03:17;;;;;;;3.2;2.2;;;;;;;4.37;92.23242;942.217;;;;
2022/02/02 18:12:15;;;;;;;3.6;2.6;;;;;;;4.32;92.34668;942.0978;;;;
2022/02/02 18:15:53;;;;;;;3;1.8;;;;;;;4.43;92.39258;942.2797;;;;
2022/02/02 18:16:57;;;;;;;2.7;1.5;;;;;;;4.55;92.0127;942.2692;;;;
2022/02/02 18:18:58;;;;;;;2.3;2.1;;;;;;;4.56;91.70117;942.3234;;;;
2022/02/02 18:21:05;;;;;;;62.6;37;;;;;;;4.34;92.85645;942.3022;;;;
2022/02/02 18:23:43;;;;;;;3.6;2.3;;;;;;;4.32;92.4248;942.3705;;;;
2022/02/02 18:26:13;;;;;;;3.2;1.8;;;;;;;4.07;93;942.4085;;;;
2022/02/02 18:28:38;;;;;;;3.8;2.2;;;;;;;4.05;92.63672;942.3359;;;;
2022/02/02 18:31:12;;;;;;;8.2;5;;;;;;;4.09;92.76758;942.3384;;;;
2022/02/02 18:33:42;;;;;;;7.1;4.8;;;;;;;4.09;93.46582;942.5336;;;;
2022/02/02 18:36:18;;;;;;;6.6;4.5;;;;;;;4.12;93.75293;942.5894;;;;
2022/02/02 18:39:42;;;;;;;8.6;6.5;;;;;;;4.26;93.31152;942.5172;;;;
2022/02/02 18:44:18;;;;;;;7.9;5.5;;;;;;;4.37;92.6377;942.3495;;;;
2022/02/02 18:46:29;;;;;;;6.4;5.5;;;;;;;4.24;93.99414;942.4052;;;;
2022/02/02 18:48:42;;;;;;;8.6;6.4;;;;;;;4.3;93.63477;942.4554;;;;
2022/02/02 18:56:20;;;;;;;10.5;8;;;;;;;4.13;95.20996;942.7617;;;;
2022/02/02 18:58:37;;;;;;;12.1;9.4;;;;;;;4.16;94.65332;942.7164;;;;
2022/02/02 19:01:09;;;;;;;14.3;10.3;;;;;;;4.04;95.09766;942.6923;;;;
2022/02/02 19:04:07;;;;;;;16.5;11.8;;;;;;;4.05;95.6748;942.678;;;;
2022/02/02 19:06:52;;;;;;;17.1;12.7;;;;;;;4.1;95.21094;942.7609;;;;
2022/02/02 19:39:18;;;;;;;14.7;10.9;;;;;;;4.15;94.99805;943.3322;;;;
2022/02/02 19:52:20;;;;;;;16.4;11.8;;;;;;;4.28;94.04688;943.3976;;;;
2022/02/02 19:53:28;;;;;;;43.1;33.7;;;;;;;4.17;93.60742;943.2067;;;;
2022/02/02 19:55:34;;;;;;;30.1;27.1;;;;;;;4.01;94.91113;943.28;;;;
2022/02/02 20:03:03;;;;;;;16.7;12.7;;;;;;;4.24;93.44238;943.3322;;;;
2022/02/02 20:05:16;;;;;;;17.3;12.9;;;;;;;4.07;93.73145;943.4423;;;;
2022/02/02 20:07:44;;;;;;;15.9;12.5;;;;;;;4.11;94.16895;943.3857;;;;
2022/02/02 20:10:26;;;;;;;13.3;10.3;;;;;;;4.09;94.27539;943.4407;;;;
2022/02/02 20:12:25;;;;;;;14;10.7;;;;;;;4;93.99902;943.4352;;;;
2022/02/02 20:14:47;;;;;;;15.7;11.9;;;;;;;3.88;94.84961;943.4026;;;;
2022/02/02 20:17:22;;;;;;;13.8;11.2;;;;;;;4.01;94.84375;943.4099;;;;
2022/02/02 20:19:50;;;;;;;15.2;12.2;;;;;;;4.03;94.1377;943.4988;;;;
2022/02/02 20:22:11;;;;;;;14.1;11.5;;;;;;;4.02;93.62012;943.43;;;;
2022/02/02 20:24:51;;;;;;;15.5;12.2;;;;;;;3.99;94.11816;943.4172;;;;
2022/02/02 20:27:13;;;;;;;15.6;12.5;;;;;;;4.06;94.14551;943.3766;;;;
2022/02/02 20:29:36;;;;;;;13.8;10.4;;;;;;;3.68;95.83691;943.3729;;;;
2022/02/02 20:32:01;;;;;;;12;10.4;;;;;;;3.57;97.12695;943.4791;;;;
2022/02/02 20:34:26;;;;;;;15.7;12.3;;;;;;;3.84;96.48047;943.5175;;;;
2022/02/02 20:36:51;;;;;;;15.8;12.8;;;;;;;3.93;95.93848;943.5844;;;;
2022/02/02 20:39:35;;;;;;;14.8;12.3;;;;;;;4.08;95.54395;943.5506;;;;
2022/02/02 20:41:44;;;;;;;18.1;13;;;;;;;4.13;95.24121;943.6433;;;;
2022/02/02 20:44:22;;;;;;;14.9;11.8;;;;;;;4.13;94.97168;943.7711;;;;
2022/02/02 20:46:59;;;;;;;13.1;10.8;;;;;;;4.07;95.39551;943.7859;;;;
2022/02/02 21:03:10;;;;;;;18.3;14.6;;;;;;;3.67;97.2168;943.7365;;;;
2022/02/02 21:04:05;;;;;;;26.9;19.7;;;;;;;3.91;97.01465;943.759;;;;
2022/02/02 21:06:23;;;;;;;24;18.4;;;;;;;3.98;96.10645;943.6919;;;;
2022/02/02 21:08:58;;;;;;;19.6;14.8;;;;;;;3.93;95.36523;943.8758;;;;
2022/02/02 21:11:12;;;;;;;18.5;14.1;;;;;;;4.04;94.78223;943.8909;;;;
2022/02/02 21:13:45;;;;;;;18.6;13.8;;;;;;;3.99;94.75879;943.8656;;;;
2022/02/02 21:16:01;;;;;;;22.6;17.1;;;;;;;3.93;94.45508;943.904;;;;
2022/02/02 21:18:36;;;;;;;16.4;13;;;;;;;3.89;95.49023;943.8345;;;;
2022/02/02 21:21:02;;;;;;;24.6;15.1;;;;;;;4;94.77246;943.8273;;;;
2022/02/02 21:23:36;;;;;;;16.4;11.9;;;;;;;4.02;94.9248;943.8918;;;;
2022/02/02 21:26:15;;;;;;;15.4;12;;;;;;;4.11;94.84375;943.923;;;;
2022/02/02 21:28:23;;;;;;;18.1;14;;;;;;;4.1;94.51563;943.9338;;;;
2022/02/02 21:30:48;;;;;;;22.5;15.7;;;;;;;4.16;94.02344;944.0064;;;;
2022/02/02 21:33:18;;;;;;;20.9;15.6;;;;;;;4.05;94.5957;943.8458;;;;
2022/02/02 21:35:50;;;;;;;20.4;15.4;;;;;;;4.13;94.73535;943.9789;;;;
2022/02/02 21:38:26;;;;;;;16.2;12.2;;;;;;;3.86;95.61914;943.8474;;;;
2022/02/02 21:40:49;;;;;;;14.9;11.9;;;;;;;3.93;95.34277;944.0089;;;;
2022/02/02 21:43:09;;;;;;;20.4;17.1;;;;;;;3.91;95.58594;943.9648;;;;